Time;durP1;ratioP1;P1;durP2;ratioP2;P2;SDS_P1;SDS_P2;PMS_P1;PMS_P2;Temp;Humidity;BMP_temperature;BMP_pressure;BME280_temperature;BME280_humidity;BME280_pressure;Samples;Min_cycle;Max_cycle;Signal;HPM_P1;HPM_P2
2023/12/21 00:01:01;;;;;;;3.20;1.10;;;6.10;79.00;;;;;;5062800;28;20218;-70
2023/12/21 00:03:26;;;;;;;3.10;1.30;;;6.20;78.90;;;;;;5053082;28;20435;-70
2023/12/21 00:05:52;;;;;;;2.63;1.60;;;6.20;78.90;;;;;;5063748;28;20189;-72
2023/12/21 00:08:17;;;;;;;3.10;1.30;;;6.20;78.90;;;;;;5065348;28;20190;-70
2023/12/21 00:10:43;;;;;;;2.53;1.37;;;6.20;79.00;;;;;;5061570;28;20212;-70
2023/12/21 00:13:09;;;;;;;3.93;1.43;;;6.20;78.90;;;;;;5062679;28;20188;-70
2023/12/21 00:15:34;;;;;;;2.33;1.00;;;6.20;78.60;;;;;;5063620;28;20215;-71
2023/12/21 00:18:00;;;;;;;1.47;1.10;;;6.30;78.60;;;;;;5065933;28;20180;-69
2023/12/21 00:20:25;;;;;;;2.13;1.10;;;6.20;78.60;;;;;;5065419;28;20612;-70
2023/12/21 00:22:51;;;;;;;2.83;1.10;;;6.20;79.00;;;;;;5070477;28;20180;-70
2023/12/21 00:25:17;;;;;;;1.23;0.77;;;6.10;79.50;;;;;;5068097;28;20194;-71
2023/12/21 00:27:42;;;;;;;2.07;1.13;;;6.10;79.60;;;;;;5064826;28;20187;-71
2023/12/21 00:30:08;;;;;;;1.93;1.10;;;6.10;79.70;;;;;;5061508;28;20771;-70
2023/12/21 00:32:34;;;;;;;2.93;1.00;;;6.10;79.90;;;;;;5066437;28;20672;-72
2023/12/21 00:34:59;;;;;;;1.87;1.13;;;6.10;79.70;;;;;;5065437;28;20418;-69
2023/12/21 00:37:25;;;;;;;1.40;0.80;;;6.10;80.00;;;;;;5065768;28;20754;-69
2023/12/21 00:39:50;;;;;;;3.07;1.23;;;6.10;80.00;;;;;;5065960;28;20203;-71
2023/12/21 00:42:16;;;;;;;3.90;1.10;;;6.10;80.00;;;;;;5069029;28;20794;-71
2023/12/21 00:44:42;;;;;;;1.30;0.80;;;6.10;79.70;;;;;;5065050;28;20680;-70
2023/12/21 00:47:08;;;;;;;1.97;0.90;;;6.10;79.70;;;;;;5067675;28;20184;-72
2023/12/21 00:49:34;;;;;;;1.10;1.00;;;6.10;79.70;;;;;;5059961;28;20422;-70
2023/12/21 00:51:59;;;;;;;3.37;0.90;;;6.20;79.60;;;;;;5066743;28;20621;-69
2023/12/21 00:54:25;;;;;;;1.67;0.80;;;6.20;79.60;;;;;;5070129;28;20184;-70
2023/12/21 00:56:50;;;;;;;0.93;0.70;;;6.20;79.70;;;;;;5065126;28;20216;-70
2023/12/21 00:59:16;;;;;;;0.80;0.67;;;6.20;79.90;;;;;;5069475;28;20233;-73
2023/12/21 01:01:42;;;;;;;1.13;0.80;;;6.20;79.60;;;;;;5055885;28;20238;-70
2023/12/21 01:04:08;;;;;;;2.30;1.00;;;6.20;79.70;;;;;;5059747;28;20426;-71
2023/12/21 01:06:36;;;;;;;1.30;0.83;;;6.20;79.70;;;;;;5059284;28;20190;-71
2023/12/21 01:09:03;;;;;;;0.90;0.70;;;6.20;79.90;;;;;;5065962;28;20248;-70
2023/12/21 01:11:28;;;;;;;1.10;0.70;;;6.20;79.90;;;;;;5059985;28;20493;-70
2023/12/21 01:13:54;;;;;;;0.90;0.73;;;6.20;80.00;;;;;;5064267;28;20859;-72
2023/12/21 01:16:19;;;;;;;1.60;0.80;;;6.20;80.00;;;;;;5065354;28;20261;-70
2023/12/21 01:18:46;;;;;;;1.00;0.70;;;6.20;80.20;;;;;;5065601;28;20203;-70
2023/12/21 01:21:11;;;;;;;2.13;0.90;;;6.20;80.30;;;;;;5057907;28;20562;-70
2023/12/21 01:23:37;;;;;;;1.13;0.80;;;6.30;80.20;;;;;;5063303;28;20423;-70
2023/12/21 01:26:03;;;;;;;1.47;1.00;;;6.20;80.20;;;;;;5069620;28;20187;-73
2023/12/21 01:28:28;;;;;;;3.40;0.90;;;6.20;80.20;;;;;;5065820;28;20196;-71
2023/12/21 01:30:54;;;;;;;1.30;0.90;;;6.20;80.20;;;;;;5063778;28;20200;-70
2023/12/21 01:33:20;;;;;;;1.10;1.00;;;6.30;80.20;;;;;;5067595;28;20645;-70
2023/12/21 01:35:46;;;;;;;1.40;0.80;;;6.30;80.20;;;;;;5061909;28;20212;-71
2023/12/21 01:38:11;;;;;;;0.73;0.60;;;6.30;80.20;;;;;;5064659;28;20186;-70
2023/12/21 01:40:37;;;;;;;0.80;0.70;;;6.30;79.90;;;;;;5063449;28;20454;-69
2023/12/21 01:43:03;;;;;;;1.60;0.73;;;6.40;79.90;;;;;;5061651;28;20192;-69
2023/12/21 01:45:28;;;;;;;4.90;0.77;;;6.40;79.70;;;;;;5062874;28;20229;-70
2023/12/21 01:47:55;;;;;;;0.80;0.60;;;6.40;79.70;;;;;;5064569;28;20218;-70
2023/12/21 01:50:20;;;;;;;1.57;0.60;;;6.40;79.60;;;;;;5060187;28;20315;-69
2023/12/21 01:52:47;;;;;;;1.00;0.70;;;6.40;79.60;;;;;;5063219;28;20931;-70
2023/12/21 01:55:14;;;;;;;1.43;0.90;;;6.40;79.60;;;;;;5066331;28;20213;-70
2023/12/21 01:57:40;;;;;;;0.80;0.63;;;6.40;79.60;;;;;;5060256;28;20454;-71
2023/12/21 02:00:06;;;;;;;1.00;0.50;;;6.40;79.30;;;;;;5067713;28;20873;-70
2023/12/21 02:02:32;;;;;;;1.67;0.80;;;6.40;79.20;;;;;;5057964;28;20423;-71
2023/12/21 02:04:58;;;;;;;1.47;0.60;;;6.40;79.20;;;;;;5065391;28;20924;-71
2023/12/21 02:07:24;;;;;;;2.10;0.73;;;6.40;79.20;;;;;;5057803;28;20244;-71
2023/12/21 02:09:49;;;;;;;0.60;0.50;;;6.40;79.20;;;;;;5059310;28;20836;-70
2023/12/21 02:12:15;;;;;;;1.33;0.80;;;6.50;79.20;;;;;;5060206;28;20187;-70
2023/12/21 02:14:40;;;;;;;2.37;0.63;;;6.50;79.00;;;;;;5063744;28;20267;-70
2023/12/21 02:17:10;;;;;;;0.70;0.60;;;6.50;78.90;;;;;;5068556;28;20207;-70
2023/12/21 02:19:38;;;;;;;1.03;0.73;;;6.50;78.70;;;;;;5063365;28;20279;-70
2023/12/21 02:22:04;;;;;;;2.20;0.80;;;6.60;78.70;;;;;;5066215;28;20411;-71
2023/12/21 02:24:30;;;;;;;0.90;0.50;;;6.60;78.70;;;;;;5064998;28;20435;-71
2023/12/21 02:26:56;;;;;;;1.10;0.50;;;6.60;78.60;;;;;;5068111;28;20446;-71
2023/12/21 02:29:22;;;;;;;0.90;0.60;;;6.60;78.60;;;;;;5067675;28;20433;-70
2023/12/21 02:31:47;;;;;;;1.13;0.67;;;6.60;78.60;;;;;;5065854;28;20234;-70
2023/12/21 02:34:13;;;;;;;1.50;0.60;;;6.60;78.90;;;;;;5064963;28;20203;-69
2023/12/21 02:36:38;;;;;;;0.90;0.60;;;6.60;78.70;;;;;;5052499;28;20216;-70
2023/12/21 02:39:04;;;;;;;2.20;1.23;;;6.70;78.60;;;;;;5060398;28;20176;-69
2023/12/21 02:41:30;;;;;;;1.97;0.70;;;6.70;78.60;;;;;;5051033;28;20205;-71
2023/12/21 02:43:55;;;;;;;1.27;0.60;;;6.70;78.60;;;;;;5061783;28;20196;-68
2023/12/21 02:46:25;;;;;;;0.90;0.70;;;6.70;78.70;;;;;;5070086;28;20213;-70
2023/12/21 02:48:51;;;;;;;5.07;0.60;;;6.70;78.70;;;;;;5068633;28;20879;-70
2023/12/21 02:51:17;;;;;;;0.60;0.50;;;6.70;78.70;;;;;;5063469;28;20449;-71
2023/12/21 02:53:43;;;;;;;0.60;0.47;;;6.70;78.70;;;;;;5062097;28;20551;-70
2023/12/21 02:56:08;;;;;;;1.60;0.50;;;6.70;78.60;;;;;;5069599;28;20204;-69
2023/12/21 02:58:34;;;;;;;0.90;0.57;;;6.80;78.60;;;;;;5067702;28;20671;-70
2023/12/21 03:01:01;;;;;;;0.70;0.50;;;6.80;78.40;;;;;;5061858;28;20480;-71
2023/12/21 03:03:27;;;;;;;0.70;0.50;;;6.80;78.40;;;;;;5067247;28;20302;-71
2023/12/21 03:05:52;;;;;;;1.37;0.50;;;6.80;78.40;;;;;;5068621;28;21039;-71
2023/12/21 03:08:18;;;;;;;0.90;0.73;;;6.80;78.60;;;;;;5074290;28;20259;-72
2023/12/21 03:10:43;;;;;;;0.70;0.57;;;6.80;78.70;;;;;;5068616;28;20207;-71
2023/12/21 03:13:09;;;;;;;1.43;0.50;;;6.80;78.70;;;;;;5074472;28;20681;-70
2023/12/21 03:15:35;;;;;;;0.77;0.50;;;6.80;78.90;;;;;;5069865;28;20665;-70
2023/12/21 03:18:00;;;;;;;0.60;0.50;;;6.80;78.70;;;;;;5066231;28;20574;-71
2023/12/21 03:20:26;;;;;;;1.23;0.60;;;6.80;78.70;;;;;;5061700;28;20265;-71
2023/12/21 03:22:51;;;;;;;0.80;0.50;;;6.80;78.70;;;;;;5066069;28;20261;-70
2023/12/21 03:25:17;;;;;;;0.50;0.40;;;6.90;78.70;;;;;;5062309;28;20187;-70
2023/12/21 03:27:42;;;;;;;0.80;0.60;;;6.80;78.90;;;;;;5065131;28;20180;-72
2023/12/21 03:30:09;;;;;;;0.80;0.60;;;6.80;79.00;;;;;;5068088;28;20204;-71
2023/12/21 03:32:36;;;;;;;0.60;0.50;;;6.80;79.30;;;;;;5067888;28;20191;-70
2023/12/21 03:35:03;;;;;;;1.80;0.60;;;6.90;79.20;;;;;;5063812;28;20580;-71
2023/12/21 03:37:29;;;;;;;1.87;0.47;;;6.90;79.20;;;;;;5070077;28;20430;-70
2023/12/21 03:39:56;;;;;;;0.80;0.50;;;6.90;79.50;;;;;;5065019;28;20529;-70
2023/12/21 03:42:21;;;;;;;0.50;0.40;;;6.80;79.60;;;;;;5061850;28;20459;-70
2023/12/21 03:44:47;;;;;;;0.80;0.60;;;6.80;79.70;;;;;;5061421;28;20469;-71
2023/12/21 03:47:13;;;;;;;0.60;0.50;;;6.80;79.90;;;;;;5071498;28;20640;-71
2023/12/21 03:49:39;;;;;;;1.63;0.87;;;6.80;79.70;;;;;;5068862;28;20802;-72
2023/12/21 03:52:05;;;;;;;1.57;1.47;;;6.90;79.70;;;;;;5062032;28;20443;-71
2023/12/21 03:54:31;;;;;;;0.90;0.50;;;6.90;79.70;;;;;;5062500;28;20423;-69
2023/12/21 03:56:57;;;;;;;0.80;0.50;;;6.90;79.70;;;;;;5067009;28;20477;-68
2023/12/21 03:59:22;;;;;;;1.93;0.70;;;6.90;79.70;;;;;;5058711;28;20508;-69
2023/12/21 04:01:48;;;;;;;0.60;0.47;;;6.90;79.60;;;;;;5060334;28;20663;-71
2023/12/21 04:04:14;;;;;;;0.80;0.40;;;6.90;79.60;;;;;;5062032;28;20260;-70
2023/12/21 04:06:39;;;;;;;1.97;0.50;;;6.90;79.50;;;;;;5066229;28;20606;-69
2023/12/21 04:09:05;;;;;;;0.70;0.47;;;7.00;79.50;;;;;;5069824;28;20725;-69
2023/12/21 04:11:31;;;;;;;0.77;0.53;;;7.00;79.60;;;;;;5060211;28;20262;-71
2023/12/21 04:13:57;;;;;;;0.67;0.47;;;7.00;79.70;;;;;;5070590;28;20427;-73
2023/12/21 04:16:22;;;;;;;2.30;0.50;;;6.90;80.00;;;;;;5064730;28;20243;-71
2023/12/21 04:18:48;;;;;;;0.77;0.60;;;6.90;80.80;;;;;;5065088;28;20184;-71
2023/12/21 04:21:14;;;;;;;0.87;0.50;;;6.80;81.20;;;;;;5063035;28;20206;-69
2023/12/21 04:23:39;;;;;;;0.60;0.40;;;6.80;81.70;;;;;;5055762;28;20275;-72
2023/12/21 04:26:05;;;;;;;0.70;0.60;;;6.80;81.70;;;;;;5066957;28;20204;-71
2023/12/21 04:28:31;;;;;;;0.87;0.57;;;6.80;81.70;;;;;;5062960;28;20553;-73
2023/12/21 04:30:56;;;;;;;0.70;0.50;;;6.80;81.90;;;;;;5060789;28;20249;-70
2023/12/21 04:33:22;;;;;;;1.27;0.50;;;6.80;82.10;;;;;;5069675;28;20271;-70
2023/12/21 04:35:47;;;;;;;1.10;0.60;;;6.80;82.40;;;;;;5065485;28;20215;-70
2023/12/21 04:38:13;;;;;;;0.70;0.60;;;6.80;82.50;;;;;;5069650;28;20176;-71
2023/12/21 04:40:39;;;;;;;0.60;0.50;;;6.80;82.20;;;;;;5065195;28;20579;-72
2023/12/21 04:43:06;;;;;;;0.70;0.50;;;6.80;82.80;;;;;;5067224;28;20192;-71
2023/12/21 04:45:33;;;;;;;1.33;0.50;;;6.70;83.10;;;;;;5065350;28;20189;-69
2023/12/21 04:47:58;;;;;;;0.80;0.50;;;6.70;83.40;;;;;;5060530;28;20471;-71
2023/12/21 04:50:24;;;;;;;1.00;0.50;;;6.70;83.30;;;;;;5066537;28;20538;-70
2023/12/21 04:52:51;;;;;;;1.27;0.63;;;6.70;83.60;;;;;;5067722;28;20192;-70
2023/12/21 04:55:17;;;;;;;0.90;0.70;;;6.70;83.70;;;;;;5064344;28;20723;-72
2023/12/21 04:57:43;;;;;;;0.70;0.60;;;6.70;83.80;;;;;;5059475;28;20575;-72
2023/12/21 05:00:10;;;;;;;0.70;0.50;;;6.70;83.80;;;;;;5064518;28;20607;-70
2023/12/21 05:02:35;;;;;;;1.80;0.60;;;6.70;83.70;;;;;;5069144;28;20196;-70
2023/12/21 05:05:01;;;;;;;1.23;0.67;;;6.70;83.60;;;;;;5067073;28;20430;-70
2023/12/21 05:07:27;;;;;;;0.80;0.70;;;6.80;83.40;;;;;;5061592;28;20515;-71
2023/12/21 05:09:58;;;;;;;0.70;0.57;;;6.80;83.10;;;;;;5062828;28;20218;-69
2023/12/21 05:12:25;;;;;;;0.50;0.40;;;6.80;83.10;;;;;;5067967;28;20776;-70
2023/12/21 05:14:50;;;;;;;0.83;0.60;;;6.80;83.10;;;;;;5062499;28;20431;-71
2023/12/21 05:17:16;;;;;;;0.80;0.50;;;6.80;82.80;;;;;;5069777;28;20476;-71
2023/12/21 05:19:42;;;;;;;1.00;0.50;;;6.90;82.80;;;;;;5066585;28;20212;-72
2023/12/21 05:22:08;;;;;;;1.17;0.60;;;6.90;83.10;;;;;;5064481;28;20187;-70
2023/12/21 05:24:33;;;;;;;1.53;0.50;;;6.90;83.10;;;;;;5058657;28;20630;-70
2023/12/21 05:26:59;;;;;;;0.60;0.50;;;6.90;82.80;;;;;;5060570;28;20189;-71
2023/12/21 05:29:25;;;;;;;0.83;0.60;;;6.90;82.50;;;;;;5059708;28;20283;-70
2023/12/21 05:31:50;;;;;;;0.60;0.50;;;6.90;82.70;;;;;;5064638;28;20504;-69
2023/12/21 05:34:16;;;;;;;0.60;0.40;;;6.90;82.80;;;;;;5056389;28;20192;-70
2023/12/21 05:36:41;;;;;;;0.60;0.43;;;6.90;82.80;;;;;;5062395;28;20213;-70
2023/12/21 05:39:09;;;;;;;0.60;0.50;;;6.90;83.10;;;;;;5055067;28;20184;-71
2023/12/21 05:41:34;;;;;;;0.60;0.50;;;6.90;83.30;;;;;;5060667;28;20228;-70
2023/12/21 05:44:00;;;;;;;1.00;0.50;;;6.90;82.80;;;;;;5058933;28;20521;-71
2023/12/21 05:46:25;;;;;;;0.83;0.60;;;6.90;82.70;;;;;;5068439;28;20356;-70
2023/12/21 05:48:51;;;;;;;0.70;0.50;;;7.00;82.50;;;;;;5071236;28;20191;-70
2023/12/21 05:51:17;;;;;;;1.00;0.43;;;7.00;82.20;;;;;;5065186;28;20223;-72
2023/12/21 05:53:42;;;;;;;1.20;0.50;;;7.00;82.20;;;;;;5064870;28;20191;-71
2023/12/21 05:56:08;;;;;;;0.60;0.50;;;7.00;82.10;;;;;;5061731;28;20208;-70
2023/12/21 05:58:33;;;;;;;0.70;0.50;;;7.00;82.20;;;;;;5062654;28;20306;-71
2023/12/21 06:00:59;;;;;;;0.90;0.73;;;7.10;82.40;;;;;;5060894;28;20215;-69
2023/12/21 06:03:25;;;;;;;0.90;0.57;;;7.10;82.40;;;;;;5058938;28;20269;-70
2023/12/21 06:05:50;;;;;;;0.93;0.60;;;7.00;82.50;;;;;;5066477;28;20620;-70
2023/12/21 06:08:16;;;;;;;1.00;0.60;;;7.00;82.40;;;;;;5067594;28;20246;-72
2023/12/21 06:10:41;;;;;;;0.87;0.60;;;7.00;82.70;;;;;;5062200;28;20230;-71
2023/12/21 06:13:07;;;;;;;0.70;0.50;;;7.00;82.70;;;;;;5067243;28;20195;-69
2023/12/21 06:15:33;;;;;;;0.60;0.50;;;7.10;82.70;;;;;;5068638;28;20629;-68
2023/12/21 06:17:58;;;;;;;0.70;0.50;;;7.00;82.80;;;;;;5067030;28;20179;-70
2023/12/21 06:20:24;;;;;;;1.17;0.50;;;7.10;82.80;;;;;;5063423;28;20552;-70
2023/12/21 06:22:50;;;;;;;0.77;0.47;;;7.10;82.80;;;;;;5059957;28;20196;-70
2023/12/21 06:25:15;;;;;;;0.70;0.50;;;7.10;82.80;;;;;;5061000;28;20184;-71
2023/12/21 06:27:41;;;;;;;0.70;0.60;;;7.10;82.80;;;;;;5067158;28;20650;-70
2023/12/21 06:30:07;;;;;;;0.87;0.60;;;7.10;83.10;;;;;;5066655;28;20199;-72
2023/12/21 06:32:32;;;;;;;0.70;0.40;;;7.10;83.30;;;;;;5070610;28;20184;-72
2023/12/21 06:34:58;;;;;;;0.87;0.50;;;7.10;83.30;;;;;;5071608;28;20442;-71
2023/12/21 06:37:24;;;;;;;1.73;0.53;;;7.10;83.40;;;;;;5071062;28;20754;-71
2023/12/21 06:39:50;;;;;;;1.23;0.70;;;7.10;83.60;;;;;;5067806;28;20469;-71
2023/12/21 06:42:15;;;;;;;0.90;0.70;;;7.10;83.40;;;;;;5068307;28;20183;-70
2023/12/21 06:44:42;;;;;;;0.97;0.60;;;7.10;83.60;;;;;;5064279;28;20431;-68
2023/12/21 06:47:08;;;;;;;1.63;0.60;;;7.10;83.40;;;;;;5070873;28;20186;-71
2023/12/21 06:49:33;;;;;;;1.17;0.50;;;7.10;83.30;;;;;;5070079;28;20414;-70
2023/12/21 06:51:59;;;;;;;0.70;0.50;;;7.20;83.40;;;;;;5065185;28;20196;-72
2023/12/21 06:54:24;;;;;;;1.20;0.60;;;7.20;83.30;;;;;;5059499;28;20539;-72
2023/12/21 06:56:50;;;;;;;0.63;0.50;;;7.20;83.10;;;;;;5068292;28;20769;-72
2023/12/21 06:59:15;;;;;;;1.10;0.60;;;7.20;83.00;;;;;;5061037;28;20180;-72
2023/12/21 07:01:41;;;;;;;1.30;0.57;;;7.20;83.00;;;;;;5067339;28;20708;-70
2023/12/21 07:04:08;;;;;;;0.80;0.63;;;7.30;82.80;;;;;;5065139;28;20262;-69
2023/12/21 07:06:34;;;;;;;1.23;0.80;;;7.30;82.80;;;;;;5069492;28;20228;-69
2023/12/21 07:09:00;;;;;;;0.60;0.50;;;7.30;82.70;;;;;;5067633;28;20415;-71
2023/12/21 07:11:26;;;;;;;1.13;0.70;;;7.40;82.50;;;;;;5068633;28;20485;-70
2023/12/21 07:13:51;;;;;;;1.60;0.80;;;7.40;82.50;;;;;;5069832;28;20195;-70
2023/12/21 07:16:17;;;;;;;2.70;0.70;;;7.50;82.40;;;;;;5069125;28;20470;-72
2023/12/21 07:18:42;;;;;;;0.63;0.53;;;7.50;82.10;;;;;;5068448;28;20211;-69
2023/12/21 07:21:08;;;;;;;1.20;0.70;;;7.50;82.20;;;;;;5069354;28;20282;-69
2023/12/21 07:23:34;;;;;;;0.70;0.60;;;7.50;82.20;;;;;;5069548;28;20188;-68
2023/12/21 07:25:59;;;;;;;1.60;0.60;;;7.50;82.40;;;;;;5066167;28;20196;-69
2023/12/21 07:28:28;;;;;;;0.83;0.60;;;7.50;82.40;;;;;;5063872;28;20188;-70
2023/12/21 07:30:53;;;;;;;1.20;0.60;;;7.50;82.50;;;;;;5070998;28;20299;-70
2023/12/21 07:33:19;;;;;;;0.70;0.53;;;7.50;82.40;;;;;;5073365;28;20469;-68
2023/12/21 07:35:45;;;;;;;0.97;0.60;;;7.50;82.50;;;;;;5075509;28;20219;-68
2023/12/21 07:38:10;;;;;;;1.23;0.60;;;7.50;82.50;;;;;;5075486;28;20318;-69
2023/12/21 07:40:36;;;;;;;0.70;0.50;;;7.50;82.80;;;;;;5068929;28;20215;-69
2023/12/21 07:43:01;;;;;;;0.70;0.60;;;7.50;83.00;;;;;;5071423;28;20287;-70
2023/12/21 07:45:27;;;;;;;1.53;0.50;;;7.50;83.10;;;;;;5065172;28;20183;-70
2023/12/21 07:47:53;;;;;;;0.80;0.63;;;7.50;83.40;;;;;;5071440;28;20188;-70
2023/12/21 07:50:18;;;;;;;0.80;0.60;;;7.50;83.60;;;;;;5069968;28;20231;-70
2023/12/21 07:52:44;;;;;;;0.80;0.60;;;7.50;83.60;;;;;;5072140;28;20215;-69
2023/12/21 07:55:09;;;;;;;3.50;0.80;;;7.50;83.70;;;;;;5071795;28;20270;-71
2023/12/21 07:57:35;;;;;;;0.90;0.60;;;7.50;83.70;;;;;;5068752;28;20199;-71
2023/12/21 08:00:00;;;;;;;1.03;0.67;;;7.50;83.60;;;;;;5066823;28;20301;-69
2023/12/21 08:02:26;;;;;;;1.27;0.60;;;7.50;83.60;;;;;;5070453;28;20187;-70
2023/12/21 08:04:52;;;;;;;1.67;0.80;;;7.50;83.60;;;;;;5072287;28;20277;-70
2023/12/21 08:07:17;;;;;;;1.83;0.67;;;7.60;83.40;;;;;;5066750;28;20494;-71
2023/12/21 08:09:43;;;;;;;1.27;0.80;;;7.60;83.30;;;;;;5063479;28;20215;-71
2023/12/21 08:12:08;;;;;;;1.07;0.70;;;7.60;83.30;;;;;;5070670;28;20180;-70
2023/12/21 08:14:37;;;;;;;1.63;0.60;;;7.70;83.30;;;;;;5063708;28;20184;-70
2023/12/21 08:17:07;;;;;;;0.80;0.60;;;7.70;83.30;;;;;;5066117;28;20235;-69
2023/12/21 08:19:33;;;;;;;0.80;0.50;;;7.70;83.30;;;;;;5061509;28;20467;-69
2023/12/21 08:21:59;;;;;;;0.70;0.53;;;7.70;83.30;;;;;;5065618;28;20423;-71
2023/12/21 08:24:24;;;;;;;1.20;0.80;;;7.70;83.30;;;;;;5064437;28;20463;-71
2023/12/21 08:26:50;;;;;;;0.67;0.50;;;7.70;83.10;;;;;;5066256;28;20203;-69
2023/12/21 08:29:16;;;;;;;0.77;0.60;;;7.70;83.30;;;;;;5069489;28;20180;-72
2023/12/21 08:31:41;;;;;;;0.90;0.67;;;7.80;83.10;;;;;;5068471;28;20204;-70
2023/12/21 08:34:07;;;;;;;0.70;0.60;;;7.80;83.00;;;;;;5067933;28;20176;-71
2023/12/21 08:36:33;;;;;;;1.30;0.80;;;7.80;83.10;;;;;;5063666;28;20208;-70
2023/12/21 08:38:58;;;;;;;0.93;0.70;;;7.70;83.30;;;;;;5068524;28;20528;-67
2023/12/21 08:41:25;;;;;;;0.83;0.60;;;7.80;83.30;;;;;;5066518;28;20203;-71
2023/12/21 08:43:51;;;;;;;1.00;0.60;;;7.80;83.10;;;;;;5068052;28;20196;-68
2023/12/21 08:46:17;;;;;;;1.40;0.50;;;7.80;83.30;;;;;;5062315;28;20423;-69
2023/12/21 08:48:43;;;;;;;1.23;0.90;;;7.90;83.30;;;;;;5061618;28;20258;-71
2023/12/21 08:51:08;;;;;;;0.97;0.60;;;7.80;83.30;;;;;;5066746;28;20214;-70
2023/12/21 08:53:34;;;;;;;0.70;0.50;;;7.80;83.60;;;;;;5068881;28;20188;-71
2023/12/21 08:55:59;;;;;;;1.17;0.70;;;7.80;83.70;;;;;;5062399;28;20219;-71
2023/12/21 08:58:25;;;;;;;1.00;0.70;;;7.80;83.80;;;;;;5064387;28;20600;-71
2023/12/21 09:00:51;;;;;;;0.80;0.60;;;7.80;83.70;;;;;;5058521;28;20246;-70
2023/12/21 09:03:17;;;;;;;1.33;0.50;;;7.80;83.70;;;;;;5065262;28;20184;-68
2023/12/21 09:05:42;;;;;;;0.90;0.70;;;7.80;83.70;;;;;;5056057;28;20188;-69
2023/12/21 09:08:08;;;;;;;0.90;0.70;;;7.90;83.60;;;;;;5066985;28;20768;-68
2023/12/21 09:10:34;;;;;;;1.30;0.60;;;7.90;83.60;;;;;;5062110;28;20207;-69
2023/12/21 09:12:59;;;;;;;0.80;0.60;;;7.90;83.60;;;;;;5070326;28;20192;-68
2023/12/21 09:15:26;;;;;;;0.90;0.63;;;7.80;83.80;;;;;;5057099;28;20184;-70
2023/12/21 09:17:53;;;;;;;0.70;0.60;;;7.90;83.80;;;;;;5066090;28;20763;-69
2023/12/21 09:20:18;;;;;;;1.37;0.60;;;7.90;83.70;;;;;;5061402;28;20449;-70
2023/12/21 09:22:45;;;;;;;0.57;0.50;;;7.90;83.60;;;;;;5069758;28;20414;-70
2023/12/21 09:25:11;;;;;;;2.73;0.73;;;8.00;83.30;;;;;;5070741;28;20416;-71
2023/12/21 09:27:36;;;;;;;1.00;0.70;;;8.00;83.30;;;;;;5064657;28;20453;-68
2023/12/21 09:30:05;;;;;;;1.53;0.93;;;8.00;82.80;;;;;;5061107;28;20326;-69
2023/12/21 09:32:31;;;;;;;1.63;0.80;;;8.00;82.80;;;;;;5069847;28;20278;-70
2023/12/21 09:34:56;;;;;;;1.30;0.77;;;8.10;82.70;;;;;;5062716;28;20453;-72
2023/12/21 09:37:22;;;;;;;0.80;0.40;;;8.10;82.70;;;;;;5060101;28;21144;-73
2023/12/21 09:39:49;;;;;;;0.80;0.50;;;8.10;82.40;;;;;;5057761;28;20286;-70
2023/12/21 09:42:15;;;;;;;8.50;1.10;;;8.20;82.40;;;;;;5064752;28;20179;-69
2023/12/21 09:44:46;;;;;;;0.90;0.60;;;8.20;82.20;;;;;;5062699;28;20788;-70
2023/12/21 09:47:13;;;;;;;1.70;0.70;;;8.20;82.20;;;;;;5060745;28;20426;-70
2023/12/21 09:49:41;;;;;;;0.67;0.53;;;8.20;82.10;;;;;;5062158;28;20442;-69
2023/12/21 09:52:08;;;;;;;1.00;0.60;;;8.30;81.90;;;;;;5063395;28;20429;-69
2023/12/21 09:54:39;;;;;;;0.90;0.70;;;8.30;81.80;;;;;;5065000;28;20422;-71
2023/12/21 09:57:06;;;;;;;1.17;0.70;;;8.40;81.80;;;;;;5064179;28;20478;-68
2023/12/21 09:59:35;;;;;;;0.90;0.50;;;8.40;81.70;;;;;;5065351;28;20437;-69
2023/12/21 10:02:01;;;;;;;1.83;0.60;;;8.40;81.50;;;;;;5063269;28;20558;-70
2023/12/21 10:04:27;;;;;;;1.23;0.60;;;8.40;81.50;;;;;;5069029;28;20426;-69
2023/12/21 10:06:52;;;;;;;1.90;0.70;;;8.50;81.50;;;;;;5062349;28;20449;-70
2023/12/21 10:09:19;;;;;;;1.03;0.77;;;8.40;81.50;;;;;;5066089;28;20176;-70
2023/12/21 10:11:45;;;;;;;1.00;0.60;;;8.50;81.40;;;;;;5063617;28;20457;-70
2023/12/21 10:14:21;;;;;;;1.00;0.53;;;8.50;81.50;;;;;;5067363;28;20414;-70
2023/12/21 10:16:46;;;;;;;1.80;0.80;;;8.50;81.70;;;;;;5057758;28;20553;-69
2023/12/21 10:19:12;;;;;;;2.20;0.60;;;8.50;81.90;;;;;;5069099;28;20424;-70
2023/12/21 10:21:41;;;;;;;0.90;0.50;;;8.50;81.90;;;;;;5067243;28;20685;-70
2023/12/21 10:24:10;;;;;;;1.00;0.53;;;8.50;81.90;;;;;;5067821;28;20919;-71
2023/12/21 10:26:43;;;;;;;1.30;0.60;;;8.50;82.10;;;;;;5057102;28;20900;-70
2023/12/21 10:29:09;;;;;;;0.70;0.50;;;8.50;82.20;;;;;;5054201;28;20513;-70
2023/12/21 10:31:34;;;;;;;0.93;0.60;;;8.50;82.40;;;;;;5061779;28;20888;-68
2023/12/21 10:34:00;;;;;;;1.23;0.70;;;8.50;82.40;;;;;;5063807;28;20240;-69
2023/12/21 10:36:26;;;;;;;1.43;0.50;;;8.50;82.40;;;;;;5066052;28;20212;-69
2023/12/21 10:38:52;;;;;;;0.80;0.60;;;8.50;82.50;;;;;;5057020;28;20219;-67
2023/12/21 10:41:18;;;;;;;2.30;0.70;;;8.50;82.70;;;;;;5059212;28;20799;-68
2023/12/21 10:43:45;;;;;;;0.77;0.57;;;8.60;82.50;;;;;;5064208;28;20235;-69
2023/12/21 10:46:10;;;;;;;0.70;0.50;;;8.60;82.40;;;;;;5060525;28;20433;-71
2023/12/21 10:48:38;;;;;;;7.70;0.70;;;8.60;82.40;;;;;;5071122;28;20422;-69
2023/12/21 10:51:04;;;;;;;0.77;0.60;;;8.60;82.70;;;;;;5066862;28;20694;-70
2023/12/21 10:53:32;;;;;;;0.93;0.80;;;8.60;82.40;;;;;;5061073;28;20402;-69
2023/12/21 10:55:59;;;;;;;0.70;0.50;;;8.60;82.20;;;;;;5065397;28;20822;-70
2023/12/21 10:58:26;;;;;;;0.73;0.53;;;8.70;82.10;;;;;;5065282;28;20418;-70
2023/12/21 11:00:54;;;;;;;1.03;0.60;;;8.70;81.90;;;;;;5060480;28;20455;-69
2023/12/21 11:03:20;;;;;;;1.00;0.60;;;8.70;81.80;;;;;;5057815;28;20766;-70
2023/12/21 11:05:46;;;;;;;0.93;0.60;;;8.70;81.80;;;;;;5060464;28;20438;-68
2023/12/21 11:08:12;;;;;;;1.07;0.50;;;8.70;81.80;;;;;;5064672;28;20938;-69
2023/12/21 11:10:38;;;;;;;1.20;0.67;;;8.80;81.80;;;;;;5069600;28;20452;-70
2023/12/21 11:13:04;;;;;;;1.17;0.80;;;8.80;81.70;;;;;;5070333;28;20195;-70
2023/12/21 11:15:31;;;;;;;1.17;0.60;;;8.80;81.70;;;;;;5064336;28;20411;-70
2023/12/21 11:18:03;;;;;;;1.57;0.70;;;8.80;81.70;;;;;;5067027;28;21140;-69
2023/12/21 11:20:34;;;;;;;1.30;0.50;;;8.70;81.70;;;;;;5065465;28;21087;-69
2023/12/21 11:23:06;;;;;;;2.60;0.80;;;8.80;81.80;;;;;;5065801;28;20435;-70
2023/12/21 11:25:33;;;;;;;0.90;0.60;;;8.80;81.80;;;;;;5073985;28;20489;-70
2023/12/21 11:28:00;;;;;;;1.10;0.90;;;8.80;81.90;;;;;;5080152;28;20812;-69
2023/12/21 11:30:29;;;;;;;0.70;0.50;;;8.80;81.90;;;;;;5070833;28;20461;-68
2023/12/21 11:33:09;;;;;;;0.70;0.60;;;8.80;81.90;;;;;;5072963;28;20416;-69
2023/12/21 11:35:35;;;;;;;0.70;0.47;;;8.80;81.90;;;;;;5071834;28;20469;-69
2023/12/21 11:38:07;;;;;;;0.63;0.50;;;8.90;81.80;;;;;;5072486;28;20492;-70
2023/12/21 11:40:37;;;;;;;0.60;0.50;;;8.80;81.80;;;;;;5072658;28;20997;-70
2023/12/21 11:43:06;;;;;;;0.77;0.50;;;8.90;81.70;;;;;;5068478;28;20446;-69
2023/12/21 11:45:32;;;;;;;1.00;0.60;;;8.90;81.70;;;;;;5069101;28;20950;-69
2023/12/21 11:48:00;;;;;;;2.30;0.87;;;8.90;81.70;;;;;;5063710;28;20445;-70
2023/12/21 11:50:29;;;;;;;2.53;0.70;;;8.90;81.50;;;;;;5063875;28;20203;-70
2023/12/21 11:53:18;;;;;;;0.90;0.50;;;8.90;81.50;;;;;;5062680;28;20945;-71
2023/12/21 11:55:44;;;;;;;0.87;0.50;;;9.00;81.50;;;;;;5066879;28;20553;-69
2023/12/21 11:58:21;;;;;;;1.13;0.70;;;9.00;81.50;;;;;;5067909;28;20449;-69
2023/12/21 12:00:49;;;;;;;0.90;0.63;;;9.00;81.80;;;;;;5067358;28;20477;-69
2023/12/21 12:03:17;;;;;;;0.70;0.50;;;9.00;81.80;;;;;;5064383;28;20407;-70
2023/12/21 12:05:44;;;;;;;1.70;0.90;;;9.00;81.80;;;;;;5066489;28;20491;-72
2023/12/21 12:08:10;;;;;;;1.67;0.60;;;9.00;81.80;;;;;;5057793;28;20833;-70
2023/12/21 12:10:35;;;;;;;0.77;0.63;;;9.00;81.70;;;;;;5068177;28;20457;-69
2023/12/21 12:13:03;;;;;;;1.70;0.60;;;9.00;81.40;;;;;;5065009;28;20184;-68
2023/12/21 12:15:29;;;;;;;0.80;0.70;;;9.10;81.10;;;;;;5067924;28;20675;-68
2023/12/21 12:17:55;;;;;;;0.70;0.60;;;9.10;81.10;;;;;;5063900;28;20941;-70
2023/12/21 12:20:21;;;;;;;0.60;0.50;;;9.10;80.90;;;;;;5070417;28;20487;-68
2023/12/21 12:22:52;;;;;;;1.73;0.77;;;9.20;80.80;;;;;;5070778;28;20179;-70
2023/12/21 12:25:18;;;;;;;0.93;0.60;;;9.20;80.60;;;;;;5068784;28;20422;-70
2023/12/21 12:27:45;;;;;;;0.60;0.50;;;9.20;80.30;;;;;;5071726;28;20419;-67
2023/12/21 12:30:12;;;;;;;0.60;0.50;;;9.20;80.30;;;;;;5070024;28;21013;-69
2023/12/21 12:32:38;;;;;;;2.97;0.57;;;9.30;80.20;;;;;;5062558;28;20803;-69
2023/12/21 12:35:07;;;;;;;0.60;0.50;;;9.30;80.30;;;;;;5065451;28;20449;-71
2023/12/21 12:37:35;;;;;;;0.90;0.70;;;9.30;80.30;;;;;;5070594;28;21000;-71
2023/12/21 12:40:00;;;;;;;0.80;0.60;;;9.30;80.50;;;;;;5067453;28;20453;-71
2023/12/21 12:42:27;;;;;;;2.20;0.60;;;9.30;80.30;;;;;;5065730;28;20422;-69
2023/12/21 12:44:53;;;;;;;1.00;0.60;;;9.30;80.80;;;;;;5063232;28;20291;-69
2023/12/21 12:47:20;;;;;;;0.70;0.50;;;9.30;81.40;;;;;;5062768;28;20504;-70
2023/12/21 12:49:45;;;;;;;1.23;0.70;;;9.30;81.20;;;;;;5061353;28;20540;-72
2023/12/21 12:52:19;;;;;;;1.13;0.70;;;9.30;80.90;;;;;;5064830;28;20410;-70